createdAt,value
2023-06-17T00:00:42.884Z,97122.19
2023-06-17T00:03:09.996Z,97114.03
2023-06-17T00:05:37.316Z,97115.59
2023-06-17T00:08:04.023Z,97109.81
2023-06-17T00:10:30.783Z,97110.19
2023-06-17T00:12:59.524Z,97104.69
2023-06-17T00:15:26.399Z,97098.19
2023-06-17T00:17:53.317Z,97094.34
2023-06-17T00:20:20.276Z,97097.00
2023-06-17T00:22:48.162Z,97085.00
2023-06-17T00:25:14.812Z,97083.91
2023-06-17T00:27:42.516Z,97086.13
2023-06-17T00:30:09.655Z,97085.66
2023-06-17T00:32:36.693Z,97080.00
2023-06-17T00:35:05.149Z,97082.53
2023-06-17T00:37:31.989Z,97082.78
2023-06-17T00:39:59.034Z,97082.03
2023-06-17T00:42:25.718Z,97080.47
2023-06-17T00:44:52.494Z,97085.25
2023-06-17T00:47:19.181Z,97083.34
2023-06-17T00:49:48.324Z,97080.84
2023-06-17T00:52:35.722Z,97085.38
2023-06-17T00:55:02.586Z,97089.09
2023-06-17T00:57:30.427Z,97082.13
2023-06-17T00:59:57.084Z,97086.69
2023-06-17T01:02:27.095Z,97081.41
2023-06-17T01:04:55.308Z,97085.63
2023-06-17T01:07:47.373Z,97081.91
2023-06-17T01:10:22.218Z,97077.59
2023-06-17T01:12:49.853Z,97087.03
2023-06-17T01:15:18.368Z,97087.63
2023-06-17T01:17:47.544Z,97084.50
2023-06-17T01:20:14.937Z,97076.81
2023-06-17T01:22:42.329Z,97078.81
2023-06-17T01:25:10.675Z,97083.50
2023-06-17T01:27:37.273Z,97076.88
2023-06-17T01:30:04.172Z,97079.13
2023-06-17T01:32:31.201Z,97073.16
2023-06-17T01:35:03.465Z,97065.84
2023-06-17T01:37:36.456Z,97067.63
2023-06-17T01:40:06.045Z,97067.69
2023-06-17T01:42:36.790Z,97065.31
2023-06-17T01:45:07.068Z,97063.72
2023-06-17T01:47:34.617Z,97063.50
2023-06-17T01:50:03.447Z,97058.81
2023-06-17T01:52:30.188Z,97063.59
2023-06-17T01:54:57.687Z,97062.84
2023-06-17T01:57:24.593Z,97065.72
2023-06-17T01:59:52.497Z,97066.53
2023-06-17T02:02:19.199Z,97070.03
2023-06-17T02:04:48.388Z,97062.13
2023-06-17T02:07:17.741Z,97068.34
2023-06-17T02:09:46.116Z,97065.59
2023-06-17T02:12:12.906Z,97071.94
2023-06-17T02:14:39.745Z,97076.59
2023-06-17T02:17:06.392Z,97073.13
2023-06-17T02:19:33.206Z,97067.00
2023-06-17T02:22:00.965Z,97064.34
2023-06-17T02:24:27.647Z,97062.56
2023-06-17T02:26:54.990Z,97067.09
2023-06-17T02:29:21.559Z,97062.06
2023-06-17T02:31:48.177Z,97062.91
2023-06-17T02:34:14.780Z,97066.59
2023-06-17T02:36:41.379Z,97060.72
2023-06-17T02:39:08.463Z,97060.00
2023-06-17T02:41:34.996Z,97051.38
2023-06-17T02:44:01.919Z,97054.22
2023-06-17T02:46:28.835Z,97056.34
2023-06-17T02:48:56.387Z,97060.91
2023-06-17T02:51:23.316Z,97056.22
2023-06-17T02:53:49.902Z,97055.50
2023-06-17T02:56:16.920Z,97059.72
2023-06-17T02:58:46.880Z,97058.38
2023-06-17T03:01:13.987Z,97061.22
2023-06-17T03:03:43.039Z,97062.28
2023-06-17T03:06:10.434Z,97052.47
2023-06-17T03:08:39.302Z,97056.88
2023-06-17T03:11:05.996Z,97052.34
2023-06-17T03:13:32.620Z,97050.91
2023-06-17T03:16:02.329Z,97053.75
2023-06-17T03:18:29.437Z,97056.16
2023-06-17T03:20:56.244Z,97058.19
2023-06-17T03:23:23.267Z,97058.91
2023-06-17T03:25:51.281Z,97061.22
2023-06-17T03:28:19.007Z,97066.47
2023-06-17T03:30:46.238Z,97066.38
2023-06-17T03:33:14.444Z,97067.44
2023-06-17T03:35:42.792Z,97065.53
2023-06-17T03:38:10.625Z,97064.72
2023-06-17T03:40:37.830Z,97065.09
2023-06-17T03:43:04.953Z,97071.59
2023-06-17T03:45:39.263Z,97066.84
2023-06-17T03:48:06.253Z,97064.81
2023-06-17T03:50:32.854Z,97071.44
2023-06-17T03:52:59.833Z,97071.00
2023-06-17T03:55:26.606Z,97071.81
2023-06-17T03:57:53.893Z,97069.56
2023-06-17T04:00:21.063Z,97069.25
2023-06-17T04:02:48.770Z,97072.16
2023-06-17T04:05:16.564Z,97068.00
2023-06-17T04:07:43.683Z,97066.81
2023-06-17T04:10:11.022Z,97074.97
2023-06-17T04:12:38.886Z,97075.81
2023-06-17T04:15:08.710Z,97063.81
2023-06-17T04:17:38.686Z,97063.94
2023-06-17T04:20:12.305Z,97065.72
2023-06-17T04:22:40.614Z,97067.44
2023-06-17T04:25:08.987Z,97055.44
2023-06-17T04:27:37.672Z,97066.25
2023-06-17T04:30:05.344Z,97065.69
2023-06-17T04:32:36.185Z,97066.69
2023-06-17T04:35:06.134Z,97062.38
2023-06-17T04:37:35.653Z,97062.38
2023-06-17T04:40:07.791Z,97065.03
2023-06-17T04:42:37.742Z,97054.81
2023-06-17T04:45:04.778Z,97064.88
2023-06-17T04:47:31.502Z,97071.72
2023-06-17T04:49:59.002Z,97062.69
2023-06-17T04:52:25.919Z,97066.84
2023-06-17T04:54:52.772Z,97062.63
2023-06-17T04:57:20.189Z,97070.88
2023-06-17T04:59:46.749Z,97070.00
2023-06-17T05:02:14.591Z,97068.88
2023-06-17T05:04:41.998Z,97061.31
2023-06-17T05:07:08.887Z,97064.63
2023-06-17T05:09:35.453Z,97073.75
2023-06-17T05:12:02.161Z,97078.31
2023-06-17T05:14:28.820Z,97075.38
2023-06-17T05:16:55.669Z,97078.69
2023-06-17T05:19:22.710Z,97078.63
2023-06-17T05:21:49.346Z,97077.69
2023-06-17T05:24:16.177Z,97078.47
2023-06-17T05:26:42.865Z,97080.03
2023-06-17T05:29:09.511Z,97078.75
2023-06-17T05:31:36.043Z,97081.00
2023-06-17T05:37:36.238Z,97096.75
2023-06-17T05:40:03.372Z,97093.44
2023-06-17T05:42:30.940Z,97097.22
2023-06-17T05:45:22.846Z,97101.56
2023-06-17T05:48:03.996Z,97100.94
2023-06-17T05:50:44.049Z,97102.84
2023-06-17T05:53:39.055Z,97108.56
2023-06-17T05:56:18.897Z,97101.88
2023-06-17T05:58:45.772Z,97098.38
2023-06-17T06:09:43.623Z,97098.22
2023-06-17T06:12:11.294Z,97097.13
2023-06-17T06:17:29.345Z,97093.34
2023-06-17T06:20:47.987Z,97099.06
2023-06-17T06:23:31.230Z,97092.31
2023-06-17T06:25:57.886Z,97104.19
2023-06-17T06:31:14.124Z,97097.97
2023-06-17T06:33:40.642Z,97093.81
2023-06-17T06:36:17.281Z,97101.88
2023-06-17T06:38:43.815Z,97098.88
2023-06-17T06:41:38.345Z,97108.91
2023-06-17T06:44:04.949Z,97106.56
2023-06-17T06:50:27.559Z,97110.88
2023-06-17T06:53:00.062Z,97110.63
2023-06-17T06:59:41.992Z,97121.25
2023-06-17T07:06:04.623Z,97116.19
2023-06-17T07:09:01.932Z,97115.28
2023-06-17T07:11:31.714Z,97107.03
2023-06-17T07:14:00.978Z,97112.25
2023-06-17T07:16:27.909Z,97104.03
2023-06-17T07:18:54.719Z,97113.00
2023-06-17T07:21:21.251Z,97105.09
2023-06-17T07:23:47.938Z,97114.47
2023-06-17T07:26:14.540Z,97111.22
2023-06-17T07:28:41.139Z,97110.09
2023-06-17T07:31:07.813Z,97107.94
2023-06-17T07:33:34.578Z,97111.56
2023-06-17T07:36:01.205Z,97105.13
2023-06-17T07:38:27.802Z,97095.78
2023-06-17T07:40:54.385Z,97092.72
2023-06-17T07:43:20.942Z,97103.81
2023-06-17T07:45:47.550Z,97094.41
2023-06-17T07:48:14.213Z,97098.56
2023-06-17T07:50:41.332Z,97089.25
2023-06-17T07:53:07.874Z,97089.28
2023-06-17T07:55:37.069Z,97085.53
2023-06-17T07:58:03.845Z,97076.59
2023-06-17T08:00:30.684Z,97083.59
2023-06-17T08:02:57.374Z,97077.38
2023-06-17T08:05:24.034Z,97078.16
2023-06-17T08:07:50.871Z,97081.88
2023-06-17T08:10:17.519Z,97073.94
2023-06-17T08:12:48.152Z,97068.03
2023-06-17T08:15:14.918Z,97074.59
2023-06-17T08:17:41.895Z,97066.41
2023-06-17T08:20:11.231Z,97070.25
2023-06-17T08:22:37.984Z,97072.69
2023-06-17T08:25:04.748Z,97069.38
2023-06-17T08:27:32.315Z,97071.94
2023-06-17T08:29:59.910Z,97066.94
2023-06-17T08:32:26.748Z,97057.41
2023-06-17T08:34:53.365Z,97059.25
2023-06-17T08:37:19.924Z,97056.06
2023-06-17T08:39:46.481Z,97052.00
2023-06-17T08:42:13.085Z,97046.03
2023-06-17T08:44:43.436Z,97053.44
2023-06-17T08:47:14.758Z,97055.19
2023-06-17T08:49:44.215Z,97050.41
2023-06-17T08:52:12.602Z,97047.22
2023-06-17T08:54:41.609Z,97043.91
2023-06-17T08:57:14.915Z,97040.50
2023-06-17T08:59:42.045Z,97045.16
2023-06-17T09:02:08.996Z,97036.94
2023-06-17T09:04:36.529Z,97037.69
2023-06-17T09:07:03.676Z,97042.00
2023-06-17T09:09:37.396Z,97034.97
2023-06-17T09:12:06.568Z,97034.50
2023-06-17T09:14:34.164Z,97035.97
2023-06-17T09:17:02.171Z,97031.97
2023-06-17T09:19:32.592Z,97034.56
2023-06-17T09:22:07.725Z,97024.19
2023-06-17T09:24:36.440Z,97023.19
2023-06-17T09:27:03.564Z,97019.78
2023-06-17T09:29:34.830Z,97023.03
2023-06-17T09:32:04.463Z,97019.38
2023-06-17T09:34:31.062Z,97018.81
2023-06-17T09:37:02.296Z,97008.50
2023-06-17T09:39:34.329Z,97016.34
2023-06-17T09:42:09.653Z,96998.84
2023-06-17T09:44:38.751Z,97000.56
2023-06-17T09:47:07.723Z,96987.97
2023-06-17T09:49:35.279Z,96989.00
2023-06-17T09:52:03.918Z,96994.94
2023-06-17T09:54:32.079Z,96992.34
2023-06-17T09:57:00.210Z,96989.28
2023-06-17T09:59:27.762Z,96984.91
2023-06-17T10:01:55.906Z,96984.50
2023-06-17T10:04:22.515Z,96988.22
2023-06-17T10:06:51.451Z,96980.97
2023-06-17T10:09:18.362Z,96973.06
2023-06-17T10:11:48.559Z,96975.78
2023-06-17T10:14:22.306Z,96982.66
2023-06-17T10:16:50.529Z,96984.19
2023-06-17T10:19:26.679Z,96974.91
2023-06-17T10:21:55.877Z,96982.13
2023-06-17T10:24:24.482Z,96983.06
2023-06-17T10:26:52.364Z,96984.03
2023-06-17T10:29:19.451Z,96992.97
2023-06-17T10:31:46.260Z,96993.94
2023-06-17T10:34:22.841Z,96999.28
2023-06-17T10:36:59.614Z,96999.81
2023-06-17T10:39:26.194Z,96996.53
2023-06-17T10:42:03.390Z,97003.53
2023-06-17T10:44:37.027Z,96991.75
2023-06-17T10:47:15.409Z,96993.00
2023-06-17T10:49:43.588Z,96989.16
2023-06-17T10:52:14.953Z,96982.38
2023-06-17T10:54:53.594Z,96981.44
2023-06-17T10:57:34.244Z,96983.28
2023-06-17T11:00:11.461Z,96980.28
2023-06-17T11:02:41.840Z,96977.28
2023-06-17T11:05:09.748Z,96975.59
2023-06-17T11:07:37.129Z,96973.50
2023-06-17T11:10:04.147Z,96970.97
2023-06-17T11:12:32.022Z,96974.53
2023-06-17T11:15:01.465Z,96963.81
2023-06-17T11:17:28.467Z,96951.78
2023-06-17T11:19:55.146Z,96956.41
2023-06-17T11:22:23.257Z,96954.91
2023-06-17T11:24:51.050Z,96954.38
2023-06-17T11:27:18.485Z,96945.09
2023-06-17T11:29:45.190Z,96941.75
2023-06-17T11:32:11.935Z,96939.19
2023-06-17T11:34:38.711Z,96933.72
2023-06-17T11:37:10.734Z,96924.56
2023-06-17T11:39:39.375Z,96923.31
2023-06-17T11:42:07.753Z,96915.50
2023-06-17T11:44:36.302Z,96910.88
2023-06-17T11:47:10.677Z,96929.72
2023-06-17T11:49:41.864Z,96920.06
2023-06-17T11:52:13.077Z,96908.63
2023-06-17T11:54:50.153Z,96912.72
2023-06-17T11:57:22.395Z,96906.81
2023-06-17T11:59:49.947Z,96906.16
2023-06-17T12:02:17.026Z,96899.84
2023-06-17T12:04:45.066Z,96908.06
2023-06-17T12:07:11.954Z,96899.19
2023-06-17T12:09:49.286Z,96902.44
2023-06-17T12:12:29.478Z,96881.91
2023-06-17T12:15:14.789Z,96877.84
2023-06-17T12:17:46.057Z,96875.03
2023-06-17T12:20:14.086Z,96878.94
2023-06-17T12:22:41.009Z,96886.81
2023-06-17T12:25:08.005Z,96883.34
2023-06-17T12:27:34.658Z,96877.97
2023-06-17T12:30:02.128Z,96875.44
2023-06-17T12:32:29.767Z,96877.19
2023-06-17T12:34:56.365Z,96879.44
2023-06-17T12:37:28.921Z,96866.22
2023-06-17T12:40:04.448Z,96862.25
2023-06-17T12:42:31.301Z,96856.06
2023-06-17T12:44:58.994Z,96866.81
2023-06-17T12:47:26.507Z,96860.34
2023-06-17T12:49:53.295Z,96863.47
2023-06-17T12:52:20.191Z,96858.78
2023-06-17T12:54:47.140Z,96864.53
2023-06-17T12:57:16.037Z,96855.50
2023-06-17T12:59:42.692Z,96869.38
2023-06-17T13:02:09.343Z,96854.09
2023-06-17T13:04:36.069Z,96852.94
2023-06-17T13:07:02.990Z,96859.06
2023-06-17T13:09:29.536Z,96869.03
2023-06-17T13:11:56.298Z,96853.41
2023-06-17T13:14:23.938Z,96848.22
2023-06-17T13:16:50.870Z,96849.88
2023-06-17T13:19:18.402Z,96848.34
2023-06-17T13:21:44.962Z,96849.03
2023-06-17T13:24:14.631Z,96842.44
2023-06-17T13:26:42.262Z,96841.88
2023-06-17T13:29:09.371Z,96836.56
2023-06-17T13:31:36.022Z,96832.88
2023-06-17T13:34:02.710Z,96832.72
2023-06-17T13:36:29.520Z,96835.31
2023-06-17T13:38:56.341Z,96830.31
2023-06-17T13:41:23.424Z,96846.22
2023-06-17T13:43:50.455Z,96833.19
2023-06-17T13:46:17.168Z,96833.50
2023-06-17T13:48:44.021Z,96829.63
2023-06-17T13:51:10.646Z,96829.56
2023-06-17T13:53:38.077Z,96832.00
2023-06-17T13:56:05.010Z,96821.75
2023-06-17T13:58:31.775Z,96826.25
2023-06-17T14:00:59.052Z,96826.72
2023-06-17T14:03:25.779Z,96832.25
2023-06-17T14:05:52.666Z,96832.34
2023-06-17T14:08:21.464Z,96834.00
2023-06-17T14:10:49.595Z,96826.19
2023-06-17T14:13:16.741Z,96827.56
2023-06-17T14:15:44.466Z,96820.75
2023-06-17T14:18:12.330Z,96822.03
2023-06-17T14:20:38.933Z,96823.00
2023-06-17T14:23:05.980Z,96829.69
2023-06-17T14:25:32.936Z,96828.03
2023-06-17T14:28:00.851Z,96821.13
2023-06-17T14:30:27.435Z,96820.78
2023-06-17T14:32:54.027Z,96812.81
2023-06-17T14:35:20.788Z,96809.09
2023-06-17T14:37:49.418Z,96812.91
2023-06-17T14:40:17.040Z,96819.97
2023-06-17T14:42:45.643Z,96817.66
2023-06-17T14:45:14.230Z,96814.41
2023-06-17T14:47:41.489Z,96813.75
2023-06-17T14:50:09.939Z,96802.53
2023-06-17T14:52:36.598Z,96820.00
2023-06-17T14:55:04.238Z,96813.84
2023-06-17T14:57:33.304Z,96808.66
2023-06-17T15:00:00.498Z,96809.72
2023-06-17T15:02:30.926Z,96812.97
2023-06-17T15:04:57.580Z,96814.91
2023-06-17T15:07:25.304Z,96804.69
2023-06-17T15:09:51.895Z,96805.47
2023-06-17T15:12:18.408Z,96804.03
2023-06-17T15:14:44.961Z,96797.03
2023-06-17T15:17:11.566Z,96792.88
2023-06-17T15:19:38.206Z,96796.78
2023-06-17T15:22:05.030Z,96798.38
2023-06-17T15:24:31.715Z,96807.47
2023-06-17T15:26:58.406Z,96796.34
2023-06-17T15:29:25.093Z,96795.19
2023-06-17T15:31:51.655Z,96789.03
2023-06-17T15:34:18.811Z,96794.84
2023-06-17T15:36:45.413Z,96785.41
2023-06-17T15:39:21.824Z,96781.75
2023-06-17T15:41:50.411Z,96776.00
2023-06-17T15:44:20.335Z,96777.31
2023-06-17T15:46:47.290Z,96777.53
2023-06-17T15:49:14.101Z,96771.06
2023-06-17T15:51:40.657Z,96786.41
2023-06-17T15:54:07.319Z,96783.97
2023-06-17T15:56:36.406Z,96781.09
2023-06-17T15:59:03.947Z,96783.56
2023-06-17T16:01:30.803Z,96788.38
2023-06-17T16:03:58.098Z,96781.28
2023-06-17T16:06:24.757Z,96790.78
2023-06-17T16:08:52.334Z,96779.94
2023-06-17T16:11:19.638Z,96784.94
2023-06-17T16:13:46.355Z,96785.59
2023-06-17T16:16:12.992Z,96780.69
2023-06-17T16:18:39.745Z,96788.09
2023-06-17T16:21:06.286Z,96781.09
2023-06-17T16:23:32.844Z,96781.13
2023-06-17T16:26:00.094Z,96779.50
2023-06-17T16:28:26.876Z,96777.19
2023-06-17T16:30:53.455Z,96782.81
2023-06-17T16:33:19.977Z,96778.88
2023-06-17T16:35:46.543Z,96778.47
2023-06-17T16:38:13.067Z,96779.50
2023-06-17T16:40:39.607Z,96784.09
2023-06-17T16:43:06.156Z,96787.00
2023-06-17T16:45:32.755Z,96788.03
2023-06-17T16:48:02.399Z,96795.09
2023-06-17T16:50:28.881Z,96783.44
2023-06-17T16:52:55.736Z,96786.94
2023-06-17T16:55:22.291Z,96792.34
2023-06-17T16:57:48.794Z,96792.34
2023-06-17T17:00:15.434Z,96786.34
2023-06-17T17:02:42.051Z,96787.78
2023-06-17T17:05:08.814Z,96786.13
2023-06-17T17:07:35.535Z,96791.28
2023-06-17T17:10:02.622Z,96791.66
2023-06-17T17:12:29.242Z,96801.84
2023-06-17T17:14:57.748Z,96791.03
2023-06-17T17:17:24.324Z,96797.47
2023-06-17T17:19:51.331Z,96791.66
2023-06-17T17:22:17.890Z,96794.13
2023-06-17T17:24:44.698Z,96794.91
2023-06-17T17:27:11.749Z,96801.91
2023-06-17T17:29:38.368Z,96802.94
2023-06-17T17:32:05.652Z,96797.50
2023-06-17T17:34:32.433Z,96798.13
2023-06-17T17:36:59.229Z,96795.22
2023-06-17T17:39:25.861Z,96795.78
2023-06-17T17:41:52.430Z,96797.22
2023-06-17T17:44:19.021Z,96807.75
2023-06-17T17:46:45.624Z,96800.31
2023-06-17T17:49:12.237Z,96808.94
2023-06-17T17:51:38.881Z,96806.88
2023-06-17T17:54:05.456Z,96805.41
2023-06-17T17:56:32.289Z,96804.16
2023-06-17T17:58:59.150Z,96807.63
2023-06-17T18:01:26.322Z,96814.59
2023-06-17T18:03:53.104Z,96812.88
2023-06-17T18:06:19.811Z,96810.97
2023-06-17T18:08:46.510Z,96807.22
2023-06-17T18:11:14.170Z,96816.06
2023-06-17T18:13:40.721Z,96812.50
2023-06-17T18:16:07.587Z,96820.31
2023-06-17T18:18:34.247Z,96813.22
2023-06-17T18:21:00.918Z,96821.22
2023-06-17T18:23:28.264Z,96818.50
2023-06-17T18:25:54.966Z,96816.75
2023-06-17T18:28:21.486Z,96821.06
2023-06-17T18:30:48.051Z,96827.97
2023-06-17T18:33:14.623Z,96820.50
2023-06-17T18:35:41.171Z,96827.84
2023-06-17T18:38:09.497Z,96829.38
2023-06-17T18:40:36.352Z,96830.81
2023-06-17T18:43:02.904Z,96829.19
2023-06-17T18:45:29.526Z,96826.72
2023-06-17T18:47:56.300Z,96833.72
2023-06-17T18:50:23.623Z,96838.91
2023-06-17T18:52:52.169Z,96836.69
2023-06-17T18:55:18.927Z,96833.81
2023-06-17T18:57:45.699Z,96846.81
2023-06-17T19:00:12.679Z,96842.91
2023-06-17T19:02:39.364Z,96845.53
2023-06-17T19:05:07.036Z,96857.53
2023-06-17T19:07:33.944Z,96851.75
2023-06-17T19:10:01.817Z,96861.00
2023-06-17T19:12:31.200Z,96859.56
2023-06-17T19:14:58.619Z,96862.38
2023-06-17T19:17:28.600Z,96869.09
2023-06-17T19:19:58.768Z,96874.31
2023-06-17T19:22:28.411Z,96866.81
2023-06-17T19:24:56.514Z,96882.78
2023-06-17T19:27:24.928Z,96877.50
2023-06-17T19:29:51.524Z,96884.03
2023-06-17T19:32:19.176Z,96887.72
2023-06-17T19:34:48.315Z,96892.75
2023-06-17T19:37:15.345Z,96891.94
2023-06-17T19:39:41.886Z,96898.28
2023-06-17T19:42:08.500Z,96900.75
2023-06-17T19:44:37.015Z,96901.44
2023-06-17T19:47:05.805Z,96898.44
2023-06-17T19:49:32.440Z,96895.91
2023-06-17T19:51:59.538Z,96899.75
2023-06-17T19:54:28.593Z,96900.56
2023-06-17T19:56:55.629Z,96905.25
2023-06-17T19:59:22.130Z,96911.88
2023-06-17T20:01:50.924Z,96902.69
2023-06-17T20:04:17.888Z,96909.34
2023-06-17T20:06:44.433Z,96907.25
2023-06-17T20:09:11.146Z,96910.19
2023-06-17T20:11:38.788Z,96912.31
2023-06-17T20:14:05.429Z,96908.47
2023-06-17T20:16:32.083Z,96914.28
2023-06-17T20:18:58.713Z,96905.28
2023-06-17T20:21:25.363Z,96910.16
2023-06-17T20:23:51.951Z,96906.94
2023-06-17T20:26:18.523Z,96916.00
2023-06-17T20:28:45.063Z,96909.81
2023-06-17T20:31:14.202Z,96914.59
2023-06-17T20:33:40.734Z,96914.13
2023-06-17T20:36:07.404Z,96919.25
2023-06-17T20:38:34.022Z,96917.94
2023-06-17T20:41:00.927Z,96912.69
2023-06-17T20:43:27.470Z,96914.25
2023-06-17T20:45:55.125Z,96920.47
2023-06-17T20:48:21.666Z,96929.06
2023-06-17T20:50:51.086Z,96923.03
2023-06-17T20:53:17.649Z,96920.69
2023-06-17T20:55:45.008Z,96926.25
2023-06-17T20:58:11.660Z,96919.69
2023-06-17T21:00:38.325Z,96918.63
2023-06-17T21:03:05.292Z,96924.53
2023-06-17T21:05:32.298Z,96918.66
2023-06-17T21:07:58.895Z,96926.25
2023-06-17T21:10:25.591Z,96917.22
2023-06-17T21:12:52.400Z,96920.44
2023-06-17T21:15:20.173Z,96915.56
2023-06-17T21:17:46.761Z,96918.19
2023-06-17T21:20:13.393Z,96922.53
2023-06-17T21:22:40.096Z,96928.00
2023-06-17T21:25:07.639Z,96921.75
2023-06-17T21:27:34.152Z,96930.78
2023-06-17T21:30:01.344Z,96927.81
2023-06-17T21:32:29.064Z,96933.03
2023-06-17T21:34:55.626Z,96926.69
2023-06-17T21:37:23.201Z,96933.28
2023-06-17T21:39:50.797Z,96928.22
2023-06-17T21:42:17.590Z,96941.50
2023-06-17T21:44:44.610Z,96938.34
2023-06-17T21:47:11.176Z,96940.28
2023-06-17T21:49:37.786Z,96942.94
2023-06-17T21:52:05.009Z,96939.16
2023-06-17T21:54:33.103Z,96944.22
2023-06-17T21:56:59.879Z,96948.72
2023-06-17T21:59:26.472Z,96940.59
2023-06-17T22:01:53.125Z,96940.75
2023-06-17T22:04:19.695Z,96946.78
2023-06-17T22:06:46.336Z,96944.84
2023-06-17T22:09:12.965Z,96941.63
2023-06-17T22:11:39.484Z,96943.59
2023-06-17T22:14:07.230Z,96941.34
2023-06-17T22:16:33.856Z,96943.03
2023-06-17T22:19:00.417Z,96954.94
2023-06-17T22:21:26.929Z,96950.91
2023-06-17T22:23:53.472Z,96954.78
2023-06-17T22:26:20.286Z,96953.97
2023-06-17T22:28:47.997Z,96957.88
2023-06-17T22:31:15.833Z,96957.31
2023-06-17T22:33:42.381Z,96951.19
2023-06-17T22:36:09.151Z,96954.53
2023-06-17T22:38:36.791Z,96955.38
2023-06-17T22:41:03.363Z,96951.59
2023-06-17T22:43:30.198Z,96959.84
2023-06-17T22:45:56.702Z,96952.31
2023-06-17T22:48:23.243Z,96947.69
2023-06-17T22:50:49.747Z,96947.13
2023-06-17T22:53:16.393Z,96943.81
2023-06-17T22:55:43.961Z,96941.31
2023-06-17T22:58:10.657Z,96941.13
2023-06-17T23:00:37.304Z,96943.25
2023-06-17T23:03:04.004Z,96941.84
2023-06-17T23:05:30.968Z,96946.72
2023-06-17T23:07:57.539Z,96945.31
2023-06-17T23:10:24.418Z,96946.97
2023-06-17T23:12:51.292Z,96946.84
2023-06-17T23:15:17.890Z,96946.28
2023-06-17T23:17:44.492Z,96943.78
2023-06-17T23:20:11.467Z,96948.50
2023-06-17T23:22:38.259Z,96947.97
2023-06-17T23:25:07.843Z,96943.06
2023-06-17T23:27:34.752Z,96946.25
2023-06-17T23:30:01.980Z,96947.38
2023-06-17T23:32:28.822Z,96947.94
2023-06-17T23:34:55.909Z,96944.59
2023-06-17T23:37:22.880Z,96944.72
2023-06-17T23:39:49.434Z,96939.84
2023-06-17T23:42:15.996Z,96942.22
2023-06-17T23:44:43.669Z,96946.09
2023-06-17T23:47:16.106Z,96941.78
2023-06-17T23:49:42.752Z,96938.69
2023-06-17T23:52:10.951Z,96933.97
2023-06-17T23:54:38.165Z,96932.81
2023-06-17T23:57:05.222Z,96929.47
2023-06-17T23:59:32.840Z,96931.13
